createdAt,value
2023-04-28T00:00:59.050Z,6.77
2023-04-28T00:03:28.283Z,7.03
2023-04-28T00:05:57.721Z,6.60
2023-04-28T00:08:27.546Z,6.20
2023-04-28T00:10:55.753Z,6.87
2023-04-28T00:13:23.941Z,6.03
2023-04-28T00:15:53.029Z,6.63
2023-04-28T00:18:21.419Z,6.03
2023-04-28T00:20:49.705Z,6.97
2023-04-28T00:23:17.829Z,5.93
2023-04-28T00:25:52.217Z,6.30
2023-04-28T00:28:32.852Z,5.90
2023-04-28T00:31:02.156Z,6.23
2023-04-28T00:33:30.396Z,6.20
2023-04-28T00:36:02.004Z,6.17
2023-04-28T00:38:30.308Z,6.50
2023-04-28T00:41:00.020Z,6.23
2023-04-28T00:43:28.690Z,6.53
2023-04-28T00:45:56.914Z,6.80
2023-04-28T00:48:25.163Z,5.93
2023-04-28T00:50:53.664Z,6.73
2023-04-28T00:53:21.931Z,6.40
2023-04-28T00:55:50.967Z,6.30
2023-04-28T00:58:21.072Z,6.43
2023-04-28T01:00:49.328Z,5.90
2023-04-28T01:03:17.815Z,6.30
2023-04-28T01:05:46.308Z,5.93
2023-04-28T01:08:14.483Z,6.13
2023-04-28T01:10:46.054Z,6.33
2023-04-28T01:13:14.193Z,6.03
2023-04-28T01:15:43.880Z,5.83
2023-04-28T01:18:12.097Z,6.17
2023-04-28T01:20:40.329Z,5.93
2023-04-28T01:23:13.222Z,6.40
2023-04-28T01:25:42.734Z,6.10
2023-04-28T01:28:11.018Z,6.50
2023-04-28T01:30:39.436Z,6.60
2023-04-28T01:33:07.696Z,6.20
2023-04-28T01:35:36.307Z,6.27
2023-04-28T01:38:04.601Z,6.50
2023-04-28T01:40:32.803Z,6.17
2023-04-28T01:43:02.366Z,6.17
2023-04-28T01:45:30.832Z,5.97
2023-04-28T01:47:59.072Z,6.27
2023-04-28T01:50:27.379Z,6.20
2023-04-28T01:52:55.511Z,6.33
2023-04-28T01:55:23.694Z,6.40
2023-04-28T01:57:51.925Z,6.40
2023-04-28T02:00:22.021Z,6.53
2023-04-28T02:02:50.206Z,6.23
2023-04-28T02:05:18.530Z,6.50
2023-04-28T02:07:46.725Z,6.13
2023-04-28T02:10:15.169Z,6.50
2023-04-28T02:12:43.546Z,6.93
2023-04-28T02:15:12.043Z,6.03
2023-04-28T02:17:41.551Z,6.27
2023-04-28T02:20:10.104Z,6.60
2023-04-28T02:22:38.253Z,6.43
2023-04-28T02:25:06.908Z,6.20
2023-04-28T02:27:36.541Z,6.20
2023-04-28T02:30:05.402Z,6.57
2023-04-28T02:32:33.632Z,6.67
2023-04-28T02:35:03.312Z,5.97
2023-04-28T02:37:31.420Z,7.10
2023-04-28T02:39:59.573Z,6.33
2023-04-28T02:42:27.727Z,6.50
2023-04-28T02:44:56.039Z,6.97
2023-04-28T02:47:24.218Z,7.13
2023-04-28T02:49:52.411Z,6.87
2023-04-28T02:52:21.972Z,6.83
2023-04-28T02:54:54.337Z,7.17
2023-04-28T02:57:22.574Z,7.13
2023-04-28T02:59:50.759Z,7.00
2023-04-28T03:02:20.659Z,7.20
2023-04-28T03:04:48.998Z,6.87
2023-04-28T03:07:17.261Z,6.73
2023-04-28T03:09:47.182Z,7.17
2023-04-28T03:12:15.393Z,7.33
2023-04-28T03:14:43.544Z,6.67
2023-04-28T03:17:14.189Z,6.93
2023-04-28T03:19:42.359Z,6.57
2023-04-28T03:22:10.504Z,7.37
2023-04-28T03:24:38.603Z,6.83
2023-04-28T03:27:08.074Z,6.93
2023-04-28T03:29:36.274Z,6.83
2023-04-28T03:32:04.482Z,7.17
2023-04-28T03:34:32.747Z,6.97
2023-04-28T03:37:01.071Z,7.67
2023-04-28T03:39:29.215Z,7.00
2023-04-28T03:41:57.313Z,7.67
2023-04-28T03:44:26.798Z,6.87
2023-04-28T03:46:55.008Z,7.73
2023-04-28T03:49:23.156Z,7.70
2023-04-28T03:51:51.870Z,7.67
2023-04-28T03:54:19.999Z,7.33
2023-04-28T03:56:48.357Z,8.10
2023-04-28T03:59:16.724Z,7.57
2023-04-28T04:01:46.283Z,7.70
2023-04-28T04:04:14.721Z,7.90
2023-04-28T04:06:43.216Z,7.40
2023-04-28T04:09:11.726Z,7.43
2023-04-28T04:11:39.895Z,7.40
2023-04-28T04:14:08.057Z,8.23
2023-04-28T04:16:37.265Z,7.80
2023-04-28T04:19:06.794Z,7.30
2023-04-28T04:21:34.980Z,7.23
2023-04-28T04:24:03.199Z,8.40
2023-04-28T04:26:31.329Z,8.00
2023-04-28T04:28:59.552Z,9.20
2023-04-28T04:31:27.818Z,8.37
2023-04-28T04:33:56.255Z,8.77
2023-04-28T04:36:26.342Z,8.80
2023-04-28T04:38:54.788Z,8.80
2023-04-28T04:41:23.102Z,8.80
2023-04-28T04:43:51.300Z,9.43
2023-04-28T04:46:19.492Z,9.10
2023-04-28T04:48:47.707Z,9.30
2023-04-28T04:51:15.856Z,8.97
2023-04-28T04:53:45.482Z,8.83
2023-04-28T04:56:13.690Z,8.20
2023-04-28T04:58:42.214Z,9.03
2023-04-28T05:01:10.384Z,9.13
2023-04-28T05:03:38.593Z,9.60
2023-04-28T05:06:06.895Z,9.03
2023-04-28T05:08:35.033Z,9.20
2023-04-28T05:11:04.819Z,9.70
2023-04-28T05:13:32.998Z,9.20
2023-04-28T05:16:01.290Z,9.33
2023-04-28T05:18:29.561Z,9.80
2023-04-28T05:20:57.682Z,9.93
2023-04-28T05:23:25.975Z,10.07
2023-04-28T05:25:54.151Z,10.40
2023-04-28T05:28:23.664Z,10.13
2023-04-28T05:30:51.856Z,11.20
2023-04-28T05:33:20.076Z,10.43
2023-04-28T05:35:48.260Z,10.80
2023-04-28T05:38:16.430Z,10.40
2023-04-28T05:40:44.568Z,11.30
2023-04-28T05:43:12.763Z,10.53
2023-04-28T05:45:42.486Z,10.40
2023-04-28T05:48:10.859Z,10.80
2023-04-28T05:50:39.209Z,10.87
2023-04-28T05:53:07.513Z,10.93
2023-04-28T05:55:36.576Z,11.27
2023-04-28T05:58:04.774Z,11.50
2023-04-28T06:00:33.164Z,11.70
2023-04-28T06:03:02.796Z,11.67
2023-04-28T06:05:31.703Z,11.43
2023-04-28T06:08:00.258Z,11.97
2023-04-28T06:10:28.785Z,11.47
2023-04-28T06:12:57.050Z,11.60
2023-04-28T06:15:25.717Z,11.63
2023-04-28T06:17:54.761Z,13.10
2023-04-28T06:20:24.358Z,12.13
2023-04-28T06:22:52.521Z,11.80
2023-04-28T06:25:20.751Z,12.30
2023-04-28T06:27:48.950Z,12.73
2023-04-28T06:30:20.222Z,12.33
2023-04-28T06:32:48.395Z,11.87
2023-04-28T06:35:17.228Z,13.40
2023-04-28T06:37:46.761Z,13.57
2023-04-28T06:40:14.958Z,12.93
2023-04-28T06:42:43.148Z,12.43
2023-04-28T06:45:11.882Z,13.13
2023-04-28T06:47:40.707Z,14.03
2023-04-28T06:50:09.450Z,13.60
2023-04-28T06:52:39.575Z,14.20
2023-04-28T06:55:10.504Z,14.07
2023-04-28T06:57:38.746Z,13.67
2023-04-28T07:00:08.004Z,14.63
2023-04-28T07:02:36.969Z,14.13
2023-04-28T07:05:05.647Z,15.60
2023-04-28T07:07:33.951Z,14.47
2023-04-28T07:10:02.213Z,15.67
2023-04-28T07:12:31.717Z,16.10
2023-04-28T07:14:59.981Z,15.77
2023-04-28T07:17:28.162Z,16.37
2023-04-28T07:19:56.456Z,16.70
2023-04-28T07:22:24.729Z,17.60
2023-04-28T07:24:52.961Z,17.60
2023-04-28T07:27:21.405Z,17.43
2023-04-28T07:29:50.865Z,18.73
2023-04-28T07:32:19.349Z,19.37
2023-04-28T07:34:47.687Z,19.47
2023-04-28T07:37:15.895Z,18.43
2023-04-28T07:39:44.017Z,19.40
2023-04-28T07:42:12.563Z,21.67
2023-04-28T07:44:40.710Z,22.73
2023-04-28T07:47:10.616Z,22.90
2023-04-28T07:49:38.758Z,22.93
2023-04-28T07:52:07.217Z,24.43
2023-04-28T07:54:37.085Z,22.57
2023-04-28T07:57:06.186Z,23.90
2023-04-28T07:59:35.666Z,24.60
2023-04-28T08:02:04.155Z,24.60
2023-04-28T08:04:35.450Z,25.10
2023-04-28T08:07:04.167Z,23.23
2023-04-28T08:09:32.592Z,25.10
2023-04-28T08:12:00.785Z,26.17
2023-04-28T08:14:29.504Z,23.90
2023-04-28T08:16:58.444Z,27.93
2023-04-28T08:19:27.220Z,31.20
2023-04-28T08:21:56.710Z,33.43
2023-04-28T08:24:24.848Z,34.83
2023-04-28T08:26:52.951Z,38.03
2023-04-28T08:29:21.178Z,38.03
2023-04-28T08:31:49.478Z,39.97
2023-04-28T08:34:17.899Z,50.73
2023-04-28T08:36:46.354Z,44.97
2023-04-28T08:39:16.039Z,48.17
2023-04-28T08:41:44.266Z,58.40
2023-04-28T08:44:12.556Z,75.03
2023-04-28T08:46:42.668Z,71.10
2023-04-28T08:49:14.363Z,66.57
2023-04-28T08:51:47.503Z,63.43
2023-04-28T08:54:26.031Z,75.37
2023-04-28T08:56:58.849Z,61.80
2023-04-28T08:59:27.512Z,81.83
2023-04-28T09:01:56.932Z,96.63
2023-04-28T09:04:25.482Z,85.77
2023-04-28T09:06:54.067Z,105.50
2023-04-28T09:09:27.476Z,116.63
2023-04-28T09:11:56.634Z,109.30
2023-04-28T09:14:25.128Z,94.23
2023-04-28T09:16:53.760Z,134.93
2023-04-28T09:19:22.044Z,129.07
2023-04-28T09:21:51.515Z,123.67
2023-04-28T09:24:33.560Z,114.27
2023-04-28T09:27:02.372Z,114.50
2023-04-28T09:29:30.732Z,132.17
2023-04-28T09:32:15.148Z,98.40
2023-04-28T09:34:46.999Z,81.50
2023-04-28T09:37:18.348Z,75.47
2023-04-28T09:39:49.475Z,116.60
2023-04-28T09:42:34.607Z,128.50
2023-04-28T09:45:03.363Z,94.10
2023-04-28T09:47:32.699Z,99.07
2023-04-28T09:50:01.622Z,101.00
2023-04-28T09:52:29.988Z,106.07
2023-04-28T09:54:59.623Z,112.63
2023-04-28T09:57:31.390Z,111.93
2023-04-28T09:59:59.562Z,178.43
2023-04-28T10:04:59.887Z,127.43
2023-04-28T10:07:28.467Z,110.30
2023-04-28T10:09:56.878Z,120.33
2023-04-28T10:12:26.897Z,98.23
2023-04-28T10:14:55.307Z,87.80
2023-04-28T10:17:25.392Z,153.63
2023-04-28T10:19:55.380Z,174.40
2023-04-28T10:22:32.776Z,152.00
2023-04-28T10:25:11.715Z,104.50
2023-04-28T10:27:42.230Z,195.50
2023-04-28T10:30:26.571Z,164.67
2023-04-28T10:33:20.005Z,215.93
2023-04-28T10:35:48.724Z,193.03
2023-04-28T10:38:17.643Z,157.13
2023-04-28T10:40:46.302Z,123.47
2023-04-28T10:43:17.149Z,193.77
2023-04-28T10:46:01.782Z,259.67
2023-04-28T10:48:48.524Z,292.00
2023-04-28T10:51:24.424Z,189.33
2023-04-28T10:54:11.673Z,198.50
2023-04-28T10:56:41.392Z,197.53
2023-04-28T10:59:25.142Z,261.20
2023-04-28T11:01:54.678Z,176.47
2023-04-28T11:04:24.498Z,226.10
2023-04-28T11:07:07.704Z,231.50
2023-04-28T11:09:52.404Z,212.43
2023-04-28T11:12:20.550Z,251.73
2023-04-28T11:14:48.757Z,195.30
2023-04-28T11:17:19.538Z,228.70
2023-04-28T11:19:48.618Z,226.50
2023-04-28T11:22:17.389Z,219.47
2023-04-28T11:24:57.892Z,181.83
2023-04-28T11:27:26.930Z,192.50
2023-04-28T11:29:55.742Z,190.93
2023-04-28T11:32:29.552Z,223.67
2023-04-28T11:34:57.922Z,198.60
2023-04-28T11:37:27.057Z,226.87
2023-04-28T11:39:55.354Z,167.37
2023-04-28T11:42:26.049Z,246.93
2023-04-28T11:44:55.279Z,307.23
2023-04-28T11:47:34.697Z,291.33
2023-04-28T11:50:03.413Z,251.00
2023-04-28T11:52:31.830Z,284.77
2023-04-28T11:55:02.392Z,215.83
2023-04-28T11:57:30.856Z,307.50
2023-04-28T12:00:14.328Z,242.83
2023-04-28T12:02:44.183Z,268.03
2023-04-28T12:05:12.912Z,274.73
2023-04-28T12:07:45.189Z,325.07
2023-04-28T12:10:15.597Z,271.27
2023-04-28T12:12:50.615Z,218.53
2023-04-28T12:15:20.983Z,201.30
2023-04-28T12:17:51.746Z,201.43
2023-04-28T12:20:35.754Z,267.40
2023-04-28T12:23:03.923Z,191.60
2023-04-28T12:25:33.878Z,279.13
2023-04-28T12:28:03.086Z,399.07
2023-04-28T12:30:32.250Z,405.83
2023-04-28T12:33:01.848Z,529.60
2023-04-28T12:35:30.822Z,384.57
2023-04-28T12:37:59.461Z,409.57
2023-04-28T12:40:27.850Z,331.97
2023-04-28T12:42:56.975Z,312.23
2023-04-28T12:45:25.131Z,290.27
2023-04-28T12:47:53.451Z,378.47
2023-04-28T12:50:22.959Z,331.03
2023-04-28T12:52:51.114Z,284.10
2023-04-28T12:55:19.387Z,272.00
2023-04-28T12:57:47.793Z,274.40
2023-04-28T13:00:17.094Z,351.87
2023-04-28T13:02:45.398Z,339.17
2023-04-28T13:05:14.374Z,313.40
2023-04-28T13:07:45.244Z,318.47
2023-04-28T13:10:13.895Z,320.73
2023-04-28T13:12:42.417Z,408.33
2023-04-28T13:15:11.211Z,405.67
2023-04-28T13:17:39.758Z,420.57
2023-04-28T13:20:08.665Z,408.20
2023-04-28T13:22:37.173Z,327.93
2023-04-28T13:25:07.212Z,331.37
2023-04-28T13:27:37.474Z,336.77
2023-04-28T13:30:06.578Z,265.53
2023-04-28T13:32:34.837Z,306.00
2023-04-28T13:35:03.707Z,269.30
2023-04-28T13:37:31.930Z,248.30
2023-04-28T13:40:00.165Z,195.17
2023-04-28T13:42:29.741Z,188.50
2023-04-28T13:44:59.462Z,211.47
2023-04-28T13:47:27.970Z,294.93
2023-04-28T13:49:56.172Z,315.13
2023-04-28T13:52:24.392Z,321.60
2023-04-28T13:54:52.819Z,276.67
2023-04-28T13:57:20.993Z,327.53
2023-04-28T13:59:50.789Z,232.07
2023-04-28T14:02:19.100Z,299.37
2023-04-28T14:04:49.158Z,296.37
2023-04-28T14:07:17.733Z,331.90
2023-04-28T14:09:46.133Z,368.67
2023-04-28T14:12:15.451Z,285.17
2023-04-28T14:14:43.976Z,232.03
2023-04-28T14:17:13.669Z,284.17
2023-04-28T14:19:41.821Z,230.73
2023-04-28T14:22:10.026Z,201.60
2023-04-28T14:24:38.202Z,161.33
2023-04-28T14:27:06.433Z,210.83
2023-04-28T14:29:34.637Z,171.90
2023-04-28T14:32:02.800Z,189.20
2023-04-28T14:34:32.449Z,176.37
2023-04-28T14:37:00.678Z,229.07
2023-04-28T14:39:28.921Z,204.57
2023-04-28T14:41:57.148Z,214.50
2023-04-28T14:44:25.329Z,155.83
2023-04-28T14:46:53.485Z,205.87
2023-04-28T14:49:21.712Z,222.33
2023-04-28T14:51:51.859Z,212.50
2023-04-28T14:54:20.047Z,227.80
2023-04-28T14:56:48.182Z,252.27
2023-04-28T14:59:16.401Z,218.33
2023-04-28T15:01:44.630Z,192.23
2023-04-28T15:04:13.072Z,171.83
2023-04-28T15:06:41.401Z,211.53
2023-04-28T15:09:11.711Z,188.07
2023-04-28T15:11:39.921Z,219.37
2023-04-28T15:14:08.048Z,155.03
2023-04-28T15:16:36.370Z,137.97
2023-04-28T15:19:04.658Z,232.33
2023-04-28T15:21:32.872Z,192.37
2023-04-28T15:24:01.075Z,227.43
2023-04-28T15:26:30.620Z,186.37
2023-04-28T15:28:59.255Z,160.17
2023-04-28T15:31:28.267Z,220.87
2023-04-28T15:33:57.554Z,254.93
2023-04-28T15:36:25.713Z,286.03
2023-04-28T15:38:53.886Z,232.00
2023-04-28T15:41:22.106Z,278.87
2023-04-28T15:43:51.641Z,215.60
2023-04-28T15:46:19.966Z,206.33
2023-04-28T15:48:48.521Z,225.73
2023-04-28T15:51:16.994Z,296.43
2023-04-28T15:53:45.146Z,223.97
2023-04-28T15:56:13.299Z,236.83
2023-04-28T15:58:41.486Z,307.20
2023-04-28T16:01:11.508Z,263.27
2023-04-28T16:03:40.218Z,273.20
2023-04-28T16:06:09.231Z,370.73
2023-04-28T16:08:37.720Z,419.07
2023-04-28T16:11:06.193Z,332.53
2023-04-28T16:13:37.029Z,332.70
2023-04-28T16:16:06.734Z,414.57
2023-04-28T16:18:36.720Z,433.30
2023-04-28T16:21:04.992Z,378.23
2023-04-28T16:23:33.110Z,338.80
2023-04-28T16:26:01.484Z,359.93
2023-04-28T16:28:29.638Z,365.63
2023-04-28T16:30:57.842Z,274.30
2023-04-28T16:33:26.234Z,334.27
2023-04-28T16:35:59.421Z,349.33
2023-04-28T16:38:27.598Z,417.67
2023-04-28T16:40:55.936Z,239.33
2023-04-28T16:43:24.144Z,286.90
2023-04-28T16:45:52.434Z,309.30
2023-04-28T16:48:21.507Z,249.33
2023-04-28T16:50:49.648Z,264.90
2023-04-28T16:53:19.098Z,291.20
2023-04-28T16:55:47.655Z,300.53
2023-04-28T16:58:15.969Z,273.70
2023-04-28T17:00:44.132Z,288.30
2023-04-28T17:03:12.657Z,278.13
2023-04-28T17:05:40.872Z,269.03
2023-04-28T17:08:09.041Z,294.03
2023-04-28T17:10:39.836Z,338.13
2023-04-28T17:13:09.918Z,280.10
2023-04-28T17:15:38.472Z,300.10
2023-04-28T17:18:06.709Z,270.20
2023-04-28T17:20:38.433Z,211.63
2023-04-28T17:23:06.609Z,230.87
2023-04-28T17:25:34.831Z,241.57
2023-04-28T17:28:04.385Z,234.57
2023-04-28T17:30:32.653Z,214.00
2023-04-28T17:33:00.939Z,211.97
2023-04-28T17:35:29.169Z,254.20
2023-04-28T17:37:57.460Z,252.40
2023-04-28T17:40:26.824Z,173.90
2023-04-28T17:42:56.561Z,233.03
2023-04-28T17:45:26.126Z,242.80
2023-04-28T17:47:56.212Z,266.63
2023-04-28T17:50:24.431Z,232.03
2023-04-28T17:52:52.761Z,229.23
2023-04-28T17:55:21.002Z,256.40
2023-04-28T17:57:51.609Z,279.97
2023-04-28T18:00:19.822Z,298.43
2023-04-28T18:02:49.636Z,273.13
2023-04-28T18:05:18.115Z,217.33
2023-04-28T18:07:46.425Z,194.00
2023-04-28T18:10:15.221Z,188.57
2023-04-28T18:12:43.641Z,179.57
2023-04-28T18:15:12.526Z,119.30
2023-04-28T18:17:40.726Z,144.87
2023-04-28T18:20:11.180Z,126.87
2023-04-28T18:22:39.364Z,102.63
2023-04-28T18:25:07.913Z,112.20
2023-04-28T18:27:36.054Z,126.87
2023-04-28T18:30:04.431Z,144.50
2023-04-28T18:32:34.073Z,114.17
2023-04-28T18:35:02.523Z,129.50
2023-04-28T18:37:32.025Z,120.20
2023-04-28T18:40:02.507Z,122.97
2023-04-28T18:42:32.602Z,90.83
2023-04-28T18:45:01.030Z,97.90
2023-04-28T18:47:29.278Z,111.70
2023-04-28T18:49:58.026Z,81.00
2023-04-28T18:52:26.615Z,93.13
2023-04-28T18:54:56.097Z,107.23
2023-04-28T18:57:24.253Z,98.17
2023-04-28T18:59:52.730Z,89.77
2023-04-28T19:02:21.031Z,84.03
2023-04-28T19:04:49.230Z,85.03
2023-04-28T19:07:18.236Z,72.27
2023-04-28T19:09:47.227Z,60.57
2023-04-28T19:12:17.314Z,53.57
2023-04-28T19:14:45.501Z,61.87
2023-04-28T19:17:13.752Z,56.27
2023-04-28T19:19:42.853Z,73.23
2023-04-28T19:22:25.899Z,65.57
2023-04-28T19:24:54.094Z,71.00
2023-04-28T19:27:23.609Z,77.73
2023-04-28T19:29:52.049Z,109.30
2023-04-28T19:32:20.442Z,84.03
2023-04-28T19:34:50.415Z,100.53
2023-04-28T19:37:18.720Z,67.97
2023-04-28T19:39:46.898Z,67.93
2023-04-28T19:42:15.153Z,90.07
2023-04-28T19:44:46.751Z,98.07
2023-04-28T19:47:15.068Z,76.07
2023-04-28T19:49:46.357Z,77.93
2023-04-28T19:52:17.771Z,77.53
2023-04-28T19:54:46.037Z,66.70
2023-04-28T19:57:14.248Z,65.30
2023-04-28T19:59:42.488Z,67.73
2023-04-28T20:02:12.552Z,58.10
2023-04-28T20:04:41.110Z,52.93
2023-04-28T20:07:10.569Z,54.73
2023-04-28T20:09:39.221Z,71.40
2023-04-28T20:12:08.488Z,54.63
2023-04-28T20:14:37.060Z,57.77
2023-04-28T20:17:07.393Z,48.00
2023-04-28T20:19:37.761Z,51.23
2023-04-28T20:22:08.451Z,53.03
2023-04-28T20:24:39.301Z,53.50
2023-04-28T20:27:07.535Z,52.63
2023-04-28T20:29:36.564Z,45.30
2023-04-28T20:32:05.199Z,65.07
2023-04-28T20:34:33.408Z,45.00
2023-04-28T20:37:03.520Z,48.10
2023-04-28T20:39:31.838Z,46.03
2023-04-28T20:42:00.716Z,33.67
2023-04-28T20:44:28.963Z,33.67
2023-04-28T20:46:57.281Z,26.60
2023-04-28T20:49:25.534Z,26.13
2023-04-28T20:51:53.801Z,26.93
2023-04-28T20:54:23.481Z,27.67
2023-04-28T20:56:51.597Z,30.80
2023-04-28T20:59:19.782Z,31.03
2023-04-28T21:01:48.402Z,28.60
2023-04-28T21:04:16.823Z,23.97
2023-04-28T21:06:45.094Z,23.30
2023-04-28T21:09:13.963Z,24.50
2023-04-28T21:11:44.313Z,22.90
2023-04-28T21:14:13.117Z,25.60
2023-04-28T21:16:43.173Z,23.70
2023-04-28T21:19:11.525Z,24.83
2023-04-28T21:21:39.719Z,20.50
2023-04-28T21:24:09.106Z,23.63
2023-04-28T21:26:37.326Z,22.70
2023-04-28T21:29:09.200Z,22.40
2023-04-28T21:31:37.755Z,19.03
2023-04-28T21:34:06.444Z,18.93
2023-04-28T21:36:34.658Z,18.60
2023-04-28T21:39:03.952Z,17.10
2023-04-28T21:41:32.277Z,18.67
2023-04-28T21:44:00.528Z,15.73
2023-04-28T21:46:30.073Z,17.00
2023-04-28T21:48:58.272Z,19.03
2023-04-28T21:51:27.568Z,18.77
2023-04-28T21:53:55.719Z,20.63
2023-04-28T21:56:23.862Z,19.90
2023-04-28T21:58:52.041Z,19.23
2023-04-28T22:01:20.319Z,20.77
2023-04-28T22:03:50.154Z,18.70
2023-04-28T22:06:18.617Z,17.00
2023-04-28T22:08:47.199Z,18.23
2023-04-28T22:11:15.400Z,18.00
2023-04-28T22:13:43.524Z,19.60
2023-04-28T22:16:12.057Z,18.40
2023-04-28T22:18:40.706Z,17.20
2023-04-28T22:21:11.129Z,18.67
2023-04-28T22:23:39.358Z,19.60
2023-04-28T22:26:07.567Z,20.40
2023-04-28T22:28:35.814Z,22.17
2023-04-28T22:31:03.952Z,21.63
2023-04-28T22:33:32.429Z,21.50
2023-04-28T22:36:00.670Z,20.93
2023-04-28T22:38:30.192Z,22.63
2023-04-28T22:40:59.452Z,20.13
2023-04-28T22:43:27.573Z,21.17
2023-04-28T22:45:55.761Z,20.83
2023-04-28T22:48:23.926Z,20.80
2023-04-28T22:50:52.266Z,16.57
2023-04-28T22:53:20.697Z,16.80
2023-04-28T22:55:51.179Z,15.53
2023-04-28T22:58:19.321Z,16.13
2023-04-28T23:00:47.499Z,16.80
2023-04-28T23:03:15.782Z,16.60
2023-04-28T23:05:44.075Z,17.17
2023-04-28T23:08:12.188Z,16.80
2023-04-28T23:10:41.062Z,17.97
2023-04-28T23:13:10.627Z,15.87
2023-04-28T23:15:38.849Z,16.77
2023-04-28T23:18:07.054Z,17.73
2023-04-28T23:20:35.395Z,17.70
2023-04-28T23:23:03.487Z,18.70
2023-04-28T23:25:32.217Z,18.30
2023-04-28T23:28:00.496Z,19.87
2023-04-28T23:30:30.042Z,18.83
2023-04-28T23:32:58.211Z,18.03
2023-04-28T23:35:26.380Z,18.70
2023-04-28T23:37:54.503Z,16.10
2023-04-28T23:40:22.619Z,16.17
2023-04-28T23:42:50.712Z,15.90
2023-04-28T23:45:19.037Z,16.13
2023-04-28T23:47:48.604Z,15.17
2023-04-28T23:50:16.944Z,15.43
2023-04-28T23:52:46.267Z,14.40
2023-04-28T23:55:14.440Z,14.47
2023-04-28T23:57:42.821Z,15.10
